CheckWX is a tool to help pilots better visualize weather data.  It is not intended as a substitute for an official pre-flight weather briefing.

08:29:05 UTC

42J METAR
Keystone Airpark
Keystone Heights, Florida, USA
Current

14 mins ago

K42J 070815Z AUTO 00000KT 10SM FEW028 OVC045 07/06 A3015 RMK A01 TSNO
Observed
Dec-7 @ 08:15 UTC
Visibility
10 SM
Flight Rules
VFR
Cloud Levels
  • Few at 2,800' AGL
  • Overcast at 4,500' AGL
Temperature
C / 45°F
Dewpoint
C / 43°F
Humidity
93%
Altimeter
30.15" Hg
Pressure
1021.02 hPa
Previous

34 mins ago

K42J 070755Z AUTO 00000KT 10SM FEW026 FEW032 OVC045 07/07 A3015 RMK A01 TSNO
Observed
Dec-7 @ 07:55 UTC
Visibility
10 SM
Flight Rules
VFR
Cloud Levels
  • Few at 2,600' AGL
  • Few at 3,200' AGL
  • Overcast at 4,500' AGL
Temperature
C / 45°F
Dewpoint
C / 45°F
Humidity
100%
Altimeter
30.15" Hg
Pressure
1021.02 hPa
Previous

54 mins ago

K42J 070735Z AUTO 00000KT 10SM OVC046 07/06 A3015 RMK A01 TSNO
Observed
Dec-7 @ 07:35 UTC
Visibility
10 SM
Flight Rules
VFR
Cloud Levels
  • Overcast at 4,600' AGL
Temperature
C / 45°F
Dewpoint
C / 43°F
Humidity
93%
Altimeter
30.15" Hg
Pressure
1021.02 hPa